Terminal Aerodrome Forecast
Issued by NWS North Platte, NE

Home | Current Version | Previous Version | Text Only | Print | Product List | Glossary On
Versions: 1 2 3 4 5 6 7 8 9 10 11 12 13 14 15 16 17
000
FTUS43 KLBF 301700 RRA
TAFLBF
TAF
KLBF 301741Z 3018/3118 18012G18KT P6SM BKN100 OVC200
     FM302300 14007KT P6SM OVC100
      TEMPO 3108/3112 6SM -RASN BKN050
     FM311200 10005KT 3SM -SN BR BKN035 OVC100=

USA.gov is the U.S. government's official web portal to all federal, state and local government web resources and services.